DLH1MG EDDF-EDDM
Flight info
| Callsign | DLH1MG |
|---|---|
| Flight time | 0h 37m |
| Altitude | 23000 |
| Route | CINDY6F/25C CINDY Z74 HAREM T104 ROKIL ROKIL1B |
| Aircraft | A20N/M-SDE2E3FGHIRWXY/LB1 |
Departure
| Time | 2026-05-07 08:13 |
|---|---|
| Airport | Frankfurt Main Airport (EDDF) |
Arrival
| Time | 2026-05-07 08:50 |
|---|---|
| Airport | Munich Airport (EDDM) |
| Time | Latitude | Longitude | Altitude | Speed | Heading |
|---|---|---|---|---|---|
| 2026-05-07 07:52 | 50.04847 | 8.58912 | 352 ft | 0 kts | 340° |
| 2026-05-07 08:03 | 50.04840 | 8.58916 | 360 ft | 2 kts | 340° |
| 2026-05-07 08:03 | 50.04821 | 8.58927 | 353 ft | 2 kts | 340° |
| 2026-05-07 08:03 | 50.04812 | 8.58932 | 354 ft | 2 kts | 340° |
| 2026-05-07 08:03 | 50.04793 | 8.58943 | 350 ft | 2 kts | 340° |
| 2026-05-07 08:04 | 50.04779 | 8.58951 | 355 ft | 2 kts | 340° |
| 2026-05-07 08:04 | 50.04774 | 8.58954 | 355 ft | 1 kts | 340° |
| 2026-05-07 08:04 | 50.04771 | 8.58956 | 353 ft | 0 kts | 340° |
| 2026-05-07 08:07 | 50.04772 | 8.58955 | 345 ft | 1 kts | 338° |
| 2026-05-07 08:07 | 50.04772 | 8.58950 | 345 ft | 0 kts | 303° |
| 2026-05-07 08:07 | 50.04770 | 8.58928 | 350 ft | 5 kts | 256° |
| 2026-05-07 08:08 | 50.04752 | 8.58860 | 352 ft | 8 kts | 249° |
| 2026-05-07 08:08 | 50.04727 | 8.58791 | 355 ft | 8 kts | 225° |
| 2026-05-07 08:08 | 50.04678 | 8.58766 | 344 ft | 7 kts | 183° |
| 2026-05-07 08:08 | 50.04651 | 8.58764 | 347 ft | 0 kts | 185° |
| 2026-05-07 08:09 | 50.04647 | 8.58763 | 348 ft | 3 kts | 186° |
| 2026-05-07 08:10 | 50.04613 | 8.58748 | 347 ft | 4 kts | 206° |
| 2026-05-07 08:10 | 50.04575 | 8.58703 | 348 ft | 9 kts | 219° |
| 2026-05-07 08:10 | 50.04522 | 8.58638 | 350 ft | 8 kts | 219° |
| 2026-05-07 08:10 | 50.04487 | 8.58574 | 349 ft | 6 kts | 242° |
| 2026-05-07 08:11 | 50.04484 | 8.58565 | 351 ft | 0 kts | 246° |
| 2026-05-07 08:12 | 50.04477 | 8.58538 | 348 ft | 14 kts | 249° |
| 2026-05-07 08:12 | 50.04354 | 8.58024 | 350 ft | 86 kts | 249° |
| 2026-05-07 08:12 | 50.04080 | 8.56876 | 355 ft | 138 kts | 250° |
| 2026-05-07 08:12 | 50.03715 | 8.55366 | 691 ft | 152 kts | 253° |
| 2026-05-07 08:13 | 50.03361 | 8.53864 | 1446 ft | 143 kts | 252° |
| 2026-05-07 08:13 | 50.03010 | 8.52403 | 2052 ft | 147 kts | 253° |
| 2026-05-07 08:13 | 50.02592 | 8.50869 | 2445 ft | 165 kts | 238° |
| 2026-05-07 08:13 | 50.01642 | 8.49679 | 2787 ft | 189 kts | 207° |
| 2026-05-07 08:14 | 50.00309 | 8.49048 | 3161 ft | 214 kts | 193° |
| 2026-05-07 08:14 | 49.98767 | 8.49153 | 3779 ft | 230 kts | 160° |
| 2026-05-07 08:14 | 49.97479 | 8.50517 | 4773 ft | 229 kts | 127° |
| 2026-05-07 08:14 | 49.96607 | 8.52676 | 5518 ft | 246 kts | 118° |
| 2026-05-07 08:15 | 49.95711 | 8.55083 | 6143 ft | 269 kts | 118° |
| 2026-05-07 08:15 | 49.94742 | 8.57660 | 6907 ft | 282 kts | 119° |
| 2026-05-07 08:15 | 49.93731 | 8.60308 | 7887 ft | 288 kts | 120° |
| 2026-05-07 08:15 | 49.92689 | 8.63011 | 8874 ft | 295 kts | 121° |
| 2026-05-07 08:16 | 49.91623 | 8.65767 | 9852 ft | 301 kts | 121° |
| 2026-05-07 08:16 | 49.90524 | 8.68594 | 10567 ft | 315 kts | 121° |
| 2026-05-07 08:16 | 49.89349 | 8.71613 | 11002 ft | 338 kts | 121° |
| 2026-05-07 08:16 | 49.88105 | 8.74809 | 11582 ft | 352 kts | 121° |
| 2026-05-07 08:17 | 49.86832 | 8.78074 | 12561 ft | 354 kts | 121° |
| 2026-05-07 08:17 | 49.85552 | 8.81354 | 13490 ft | 358 kts | 121° |
| 2026-05-07 08:17 | 49.84254 | 8.84674 | 14341 ft | 362 kts | 120° |
| 2026-05-07 08:17 | 49.82943 | 8.88027 | 15127 ft | 366 kts | 120° |
| 2026-05-07 08:18 | 49.81617 | 8.91417 | 15917 ft | 370 kts | 121° |
| 2026-05-07 08:18 | 49.80274 | 8.94844 | 16700 ft | 375 kts | 121° |
| 2026-05-07 08:18 | 49.78913 | 8.98315 | 17468 ft | 379 kts | 121° |
| 2026-05-07 08:18 | 49.77536 | 9.01824 | 18241 ft | 384 kts | 121° |
| 2026-05-07 08:19 | 49.76143 | 9.05365 | 18899 ft | 388 kts | 121° |
| 2026-05-07 08:19 | 49.74731 | 9.08952 | 19562 ft | 392 kts | 121° |
| 2026-05-07 08:19 | 49.73307 | 9.12562 | 20229 ft | 395 kts | 121° |
| 2026-05-07 08:19 | 49.71867 | 9.16209 | 20878 ft | 400 kts | 121° |
| 2026-05-07 08:20 | 49.70411 | 9.19893 | 21528 ft | 404 kts | 121° |
| 2026-05-07 08:20 | 49.68939 | 9.23610 | 22184 ft | 407 kts | 121° |
| 2026-05-07 08:20 | 49.67456 | 9.27353 | 22754 ft | 412 kts | 121° |
| 2026-05-07 08:20 | 49.65954 | 9.31138 | 22950 ft | 413 kts | 121° |
| 2026-05-07 08:21 | 49.64450 | 9.34919 | 22968 ft | 413 kts | 121° |
| 2026-05-07 08:21 | 49.62949 | 9.38689 | 22963 ft | 412 kts | 121° |
| 2026-05-07 08:21 | 49.61323 | 9.42333 | 22967 ft | 413 kts | 128° |
| 2026-05-07 08:21 | 49.59450 | 9.45686 | 22972 ft | 413 kts | 131° |
| 2026-05-07 08:22 | 49.57547 | 9.49006 | 22960 ft | 413 kts | 131° |
| 2026-05-07 08:22 | 49.55656 | 9.52318 | 22961 ft | 413 kts | 131° |
| 2026-05-07 08:22 | 49.53780 | 9.55605 | 22972 ft | 413 kts | 131° |
| 2026-05-07 08:22 | 49.51885 | 9.58921 | 22962 ft | 413 kts | 131° |
| 2026-05-07 08:23 | 49.49983 | 9.62248 | 22965 ft | 413 kts | 131° |
| 2026-05-07 08:23 | 49.48083 | 9.65564 | 22961 ft | 414 kts | 131° |
| 2026-05-07 08:23 | 49.46180 | 9.68882 | 22964 ft | 414 kts | 131° |
| 2026-05-07 08:23 | 49.44278 | 9.72192 | 22967 ft | 414 kts | 131° |
| 2026-05-07 08:24 | 49.42370 | 9.75510 | 22965 ft | 414 kts | 131° |
| 2026-05-07 08:24 | 49.40460 | 9.78825 | 22965 ft | 415 kts | 131° |
| 2026-05-07 08:24 | 49.38547 | 9.82142 | 22958 ft | 415 kts | 131° |
| 2026-05-07 08:24 | 49.36632 | 9.85458 | 22968 ft | 415 kts | 131° |
| 2026-05-07 08:25 | 49.34718 | 9.88763 | 22969 ft | 415 kts | 131° |
| 2026-05-07 08:25 | 49.32798 | 9.92072 | 22970 ft | 415 kts | 131° |
| 2026-05-07 08:25 | 49.30878 | 9.95375 | 22964 ft | 415 kts | 131° |
| 2026-05-07 08:25 | 49.28959 | 9.98677 | 22961 ft | 415 kts | 131° |
| 2026-05-07 08:26 | 49.25113 | 10.05282 | 22964 ft | 415 kts | 131° |
| 2026-05-07 08:26 | 49.23192 | 10.08574 | 22964 ft | 415 kts | 131° |
| 2026-05-07 08:26 | 49.21264 | 10.11873 | 22973 ft | 415 kts | 131° |
| 2026-05-07 08:27 | 49.19341 | 10.15160 | 22970 ft | 415 kts | 131° |
| 2026-05-07 08:27 | 49.17418 | 10.18449 | 22976 ft | 415 kts | 131° |
| 2026-05-07 08:27 | 49.15519 | 10.21697 | 22987 ft | 415 kts | 132° |
| 2026-05-07 08:27 | 49.13569 | 10.25023 | 22995 ft | 415 kts | 133° |
| 2026-05-07 08:28 | 49.11603 | 10.28242 | 22993 ft | 415 kts | 134° |
| 2026-05-07 08:28 | 49.09637 | 10.31383 | 22990 ft | 415 kts | 134° |
| 2026-05-07 08:28 | 49.07641 | 10.34557 | 22993 ft | 414 kts | 134° |
| 2026-05-07 08:28 | 49.05651 | 10.37731 | 23004 ft | 414 kts | 134° |
| 2026-05-07 08:29 | 49.03664 | 10.40906 | 22999 ft | 414 kts | 134° |
| 2026-05-07 08:29 | 49.01676 | 10.44088 | 23010 ft | 414 kts | 134° |
| 2026-05-07 08:29 | 48.99693 | 10.47262 | 23006 ft | 414 kts | 134° |
| 2026-05-07 08:29 | 48.97706 | 10.50434 | 23008 ft | 414 kts | 134° |
| 2026-05-07 08:30 | 48.95715 | 10.53607 | 23008 ft | 414 kts | 134° |
| 2026-05-07 08:30 | 48.93728 | 10.56769 | 23007 ft | 414 kts | 134° |
| 2026-05-07 08:30 | 48.91735 | 10.59938 | 23012 ft | 414 kts | 134° |
| 2026-05-07 08:30 | 48.89745 | 10.63100 | 23008 ft | 414 kts | 134° |
| 2026-05-07 08:31 | 48.87757 | 10.66256 | 22831 ft | 415 kts | 135° |
| 2026-05-07 08:31 | 48.85753 | 10.69433 | 22307 ft | 416 kts | 135° |
| 2026-05-07 08:31 | 48.83744 | 10.72615 | 21604 ft | 418 kts | 135° |
| 2026-05-07 08:31 | 48.81743 | 10.75779 | 21057 ft | 414 kts | 135° |
| 2026-05-07 08:32 | 48.79761 | 10.78908 | 20495 ft | 409 kts | 135° |
| 2026-05-07 08:32 | 48.77798 | 10.81996 | 19934 ft | 404 kts | 135° |
| 2026-05-07 08:32 | 48.75853 | 10.85046 | 19384 ft | 400 kts | 136° |
| 2026-05-07 08:32 | 48.73927 | 10.88064 | 18832 ft | 397 kts | 136° |
| 2026-05-07 08:33 | 48.72020 | 10.91048 | 18280 ft | 392 kts | 136° |
| 2026-05-07 08:33 | 48.70134 | 10.93997 | 17701 ft | 386 kts | 136° |
| 2026-05-07 08:33 | 48.68281 | 10.96890 | 17175 ft | 380 kts | 136° |
| 2026-05-07 08:33 | 48.66453 | 10.99736 | 16645 ft | 374 kts | 136° |
| 2026-05-07 08:34 | 48.64649 | 11.02542 | 16124 ft | 370 kts | 136° |
| 2026-05-07 08:34 | 48.62869 | 11.05307 | 15614 ft | 365 kts | 136° |
| 2026-05-07 08:34 | 48.61104 | 11.08045 | 15106 ft | 362 kts | 136° |
| 2026-05-07 08:34 | 48.59358 | 11.10752 | 14603 ft | 358 kts | 137° |
| 2026-05-07 08:35 | 48.57544 | 11.13290 | 14105 ft | 353 kts | 144° |
| 2026-05-07 08:35 | 48.55553 | 11.15406 | 13599 ft | 348 kts | 149° |
| 2026-05-07 08:35 | 48.53636 | 11.17619 | 13104 ft | 348 kts | 136° |
| 2026-05-07 08:35 | 48.52336 | 11.20669 | 12781 ft | 346 kts | 113° |
| 2026-05-07 08:36 | 48.51891 | 11.24217 | 12610 ft | 350 kts | 90° |
| 2026-05-07 08:36 | 48.52220 | 11.27880 | 12340 ft | 353 kts | 78° |
| 2026-05-07 08:36 | 48.52801 | 11.31452 | 12035 ft | 349 kts | 76° |
| 2026-05-07 08:36 | 48.53411 | 11.34992 | 11738 ft | 348 kts | 76° |
| 2026-05-07 08:37 | 48.53988 | 11.38523 | 11439 ft | 346 kts | 77° |
| 2026-05-07 08:37 | 48.54528 | 11.42058 | 11133 ft | 344 kts | 77° |
| 2026-05-07 08:37 | 48.55039 | 11.45559 | 10952 ft | 337 kts | 78° |
| 2026-05-07 08:37 | 48.55520 | 11.48933 | 10783 ft | 320 kts | 78° |
| 2026-05-07 08:38 | 48.55975 | 11.52168 | 10367 ft | 312 kts | 78° |
| 2026-05-07 08:38 | 48.56418 | 11.55338 | 10013 ft | 305 kts | 78° |
| 2026-05-07 08:38 | 48.56777 | 11.58489 | 9738 ft | 305 kts | 88° |
| 2026-05-07 08:38 | 48.56586 | 11.61640 | 9472 ft | 300 kts | 106° |
| 2026-05-07 08:39 | 48.55924 | 11.64617 | 9217 ft | 299 kts | 111° |
| 2026-05-07 08:39 | 48.55246 | 11.67531 | 8958 ft | 297 kts | 111° |
| 2026-05-07 08:39 | 48.54560 | 11.70510 | 8688 ft | 296 kts | 111° |
| 2026-05-07 08:39 | 48.53888 | 11.73448 | 8438 ft | 295 kts | 111° |
| 2026-05-07 08:40 | 48.53218 | 11.76372 | 8178 ft | 294 kts | 111° |
| 2026-05-07 08:40 | 48.52558 | 11.79247 | 7919 ft | 294 kts | 111° |
| 2026-05-07 08:40 | 48.51880 | 11.82190 | 7675 ft | 292 kts | 111° |
| 2026-05-07 08:40 | 48.51217 | 11.85072 | 7422 ft | 290 kts | 111° |
| 2026-05-07 08:41 | 48.50562 | 11.87911 | 7170 ft | 292 kts | 111° |
| 2026-05-07 08:41 | 48.49885 | 11.90842 | 6907 ft | 290 kts | 111° |
| 2026-05-07 08:41 | 48.49230 | 11.93674 | 6663 ft | 289 kts | 111° |
| 2026-05-07 08:41 | 48.48567 | 11.96534 | 6416 ft | 289 kts | 111° |
| 2026-05-07 08:42 | 48.47905 | 11.99386 | 6159 ft | 287 kts | 111° |
| 2026-05-07 08:42 | 48.47243 | 12.02233 | 5907 ft | 287 kts | 111° |
| 2026-05-07 08:42 | 48.46586 | 12.05063 | 5663 ft | 286 kts | 111° |
| 2026-05-07 08:42 | 48.45930 | 12.07879 | 5416 ft | 284 kts | 111° |
| 2026-05-07 08:43 | 48.45272 | 12.10698 | 5160 ft | 285 kts | 111° |
| 2026-05-07 08:43 | 48.44621 | 12.13489 | 5015 ft | 279 kts | 111° |
| 2026-05-07 08:43 | 48.43877 | 12.16103 | 4995 ft | 262 kts | 129° |
| 2026-05-07 08:43 | 48.42516 | 12.17650 | 5007 ft | 236 kts | 168° |
| 2026-05-07 08:44 | 48.40997 | 12.17646 | 4997 ft | 209 kts | 201° |
| 2026-05-07 08:44 | 48.39768 | 12.16769 | 4987 ft | 184 kts | 231° |
| 2026-05-07 08:44 | 48.39252 | 12.15119 | 5007 ft | 181 kts | 258° |
| 2026-05-07 08:44 | 48.39065 | 12.13238 | 4992 ft | 179 kts | 264° |
| 2026-05-07 08:45 | 48.38943 | 12.11375 | 4991 ft | 180 kts | 263° |
| 2026-05-07 08:45 | 48.38799 | 12.09517 | 4993 ft | 179 kts | 263° |
| 2026-05-07 08:45 | 48.38656 | 12.07644 | 4892 ft | 181 kts | 263° |
| 2026-05-07 08:45 | 48.38511 | 12.05764 | 4635 ft | 181 kts | 263° |
| 2026-05-07 08:46 | 48.38367 | 12.03895 | 4387 ft | 179 kts | 263° |
| 2026-05-07 08:46 | 48.38222 | 12.02033 | 4135 ft | 178 kts | 263° |
| 2026-05-07 08:46 | 48.38082 | 12.00208 | 3905 ft | 169 kts | 263° |
| 2026-05-07 08:46 | 48.37954 | 11.98542 | 3685 ft | 152 kts | 263° |
| 2026-05-07 08:47 | 48.37839 | 11.97036 | 3483 ft | 139 kts | 263° |
| 2026-05-07 08:47 | 48.37734 | 11.95669 | 3305 ft | 129 kts | 262° |
| 2026-05-07 08:47 | 48.37626 | 11.94306 | 3127 ft | 134 kts | 263° |
| 2026-05-07 08:47 | 48.37521 | 11.92934 | 2951 ft | 129 kts | 263° |
| 2026-05-07 08:48 | 48.37420 | 11.91606 | 2774 ft | 128 kts | 263° |
| 2026-05-07 08:48 | 48.37318 | 11.90264 | 2600 ft | 129 kts | 262° |
| 2026-05-07 08:48 | 48.37213 | 11.88922 | 2426 ft | 129 kts | 263° |
| 2026-05-07 08:48 | 48.37115 | 11.87617 | 2265 ft | 128 kts | 263° |
| 2026-05-07 08:49 | 48.37010 | 11.86237 | 2045 ft | 131 kts | 263° |
| 2026-05-07 08:49 | 48.36902 | 11.84882 | 1857 ft | 130 kts | 263° |
| 2026-05-07 08:49 | 48.36796 | 11.83517 | 1691 ft | 133 kts | 263° |
| 2026-05-07 08:49 | 48.36690 | 11.82135 | 1527 ft | 131 kts | 264° |
| 2026-05-07 08:50 | 48.36593 | 11.80873 | 1481 ft | 99 kts | 263° |
| 2026-05-07 08:50 | 48.36534 | 11.80135 | 1479 ft | 48 kts | 263° |
| 2026-05-07 08:50 | 48.36472 | 11.79756 | 1483 ft | 35 kts | 241° |
| 2026-05-07 08:50 | 48.36389 | 11.79580 | 1481 ft | 27 kts | 231° |
| 2026-05-07 08:51 | 48.36304 | 11.79410 | 1479 ft | 13 kts | 233° |
| 2026-05-07 08:51 | 48.36274 | 11.79346 | 1480 ft | 0 kts | 234° |
| 2026-05-07 08:51 | 48.36267 | 11.79335 | 1472 ft | 4 kts | 229° |
| 2026-05-07 08:52 | 48.36215 | 11.79296 | 1485 ft | 12 kts | 183° |
| 2026-05-07 08:52 | 48.36114 | 11.79312 | 1478 ft | 17 kts | 174° |
| 2026-05-07 08:52 | 48.35999 | 11.79332 | 1481 ft | 12 kts | 174° |
| 2026-05-07 08:52 | 48.35925 | 11.79352 | 1476 ft | 11 kts | 153° |
| 2026-05-07 08:53 | 48.35845 | 11.79386 | 1482 ft | 12 kts | 174° |
| 2026-05-07 08:53 | 48.35754 | 11.79402 | 1478 ft | 14 kts | 173° |
| 2026-05-07 08:53 | 48.35667 | 11.79417 | 1474 ft | 10 kts | 173° |
| 2026-05-07 08:53 | 48.35621 | 11.79422 | 1483 ft | 5 kts | 191° |
| 2026-05-07 08:54 | 48.35604 | 11.79386 | 1479 ft | 5 kts | 255° |
| 2026-05-07 08:54 | 48.35599 | 11.79329 | 1480 ft | 6 kts | 263° |
| 2026-05-07 08:54 | 48.35595 | 11.79284 | 1485 ft | 4 kts | 263° |
| 2026-05-07 08:54 | 48.35594 | 11.79269 | 1485 ft | 0 kts | 263° |